.
WxDataArchive / Data Records for 2006-07-01
2006-06-30 July 2006 2006-07-02

Data Records for Saturday, 01 July 2006

Time	Temp	Chill	HIndex	Humid	Dewpt	 Wind 	HiWind	WindDir	Rain 	Barom 
-----	----	-----	------	-----	-----	------	------	-------	-----	----- 
00:00	64.0	64.0	64.0	71	54.4	0	0	---	0.00	30.026 
00:05	63.9	63.9	63.9	71	54.3	0	0	---	0.00	30.026 
00:10	63.9	63.9	63.9	72	54.7	0	0	---	0.00	30.026 
00:15	63.7	63.7	63.7	72	54.5	0	0	---	0.00	30.024 
00:20	63.7	63.7	63.7	72	54.5	0	0	---	0.00	30.024 
00:25	63.5	63.5	63.5	71	53.9	0	0	---	0.00	30.024 
00:30	63.5	63.5	63.5	72	54.3	0	0	---	0.00	30.026 
00:35	63.4	63.4	63.4	72	54.2	0	1	270	0.00	30.026 
00:40	63.4	63.4	63.4	73	54.6	0	0	---	0.00	30.026 
00:45	63.2	63.2	63.2	73	54.4	0	0	---	0.00	30.027 
00:50	63.2	63.2	63.2	72	54.0	0	0	---	0.00	30.027 
00:55	63.1	63.1	63.1	71	53.5	0	0	---	0.00	30.027 
01:00	62.9	62.9	62.9	71	53.3	0	0	---	0.00	30.028 
01:05	62.9	62.9	62.9	72	53.7	0	0	---	0.00	30.028 
01:10	62.7	62.7	62.7	73	53.9	0	0	---	0.00	30.028 
01:15	62.7	62.7	62.7	74	54.3	0	0	---	0.00	30.030 
01:20	62.7	62.7	62.7	75	54.7	0	0	---	0.00	30.030 
01:25	62.6	62.6	62.6	76	54.9	0	0	---	0.00	30.030 
01:30	62.6	62.6	62.6	76	54.9	0	0	---	0.00	30.032 
01:35	62.4	62.4	62.4	76	54.7	0	0	---	0.00	30.032 
01:40	62.4	62.4	62.4	76	54.7	0	0	---	0.00	30.032 
01:45	62.4	62.4	62.4	76	54.7	0	0	---	0.00	30.031 
01:50	62.3	62.3	62.3	77	55.0	0	0	---	0.00	30.031 
01:55	62.3	62.3	62.3	77	55.0	0	0	---	0.00	30.031 
02:00	62.1	62.1	62.1	77	54.8	0	0	---	0.00	30.031 
02:05	62.1	62.1	62.1	78	55.2	0	0	---	0.00	30.031 
02:10	62.0	62.0	62.0	77	54.7	0	0	---	0.00	30.031 
02:15	62.0	62.0	62.0	78	55.1	0	0	---	0.00	30.024 
02:20	61.8	61.8	61.8	79	55.2	0	0	---	0.00	30.024 
02:25	61.8	61.8	61.8	80	55.6	0	0	---	0.00	30.024 
02:30	61.6	61.6	61.6	80	55.4	0	0	---	0.00	30.023 
02:35	61.6	61.6	61.6	81	55.7	0	0	---	0.00	30.023 
02:40	61.5	61.5	61.5	81	55.6	0	0	---	0.00	30.023 
02:45	61.3	61.3	61.3	81	55.4	0	0	---	0.00	30.025 
02:50	61.3	61.3	61.3	81	55.4	0	0	---	0.00	30.025 
02:55	61.2	61.2	61.2	81	55.3	0	0	---	0.00	30.025 
03:00	61.2	61.2	61.2	81	55.3	0	0	---	0.00	30.022 
03:05	61.0	61.0	61.0	81	55.1	0	0	---	0.00	30.022 
03:10	60.9	60.9	60.9	81	55.0	0	0	---	0.00	30.022 
03:15	60.9	60.9	60.9	81	55.0	0	0	---	0.00	30.021 
03:20	60.7	60.7	60.7	81	54.8	0	0	---	0.00	30.021 
03:25	60.7	60.7	60.7	82	55.2	0	0	---	0.00	30.021 
03:30	60.5	60.5	60.5	82	55.0	0	0	---	0.00	30.017 
03:35	60.5	60.5	60.5	83	55.3	0	0	---	0.00	30.017 
03:40	60.4	60.4	60.4	83	55.2	0	0	---	0.00	30.017 
03:45	60.4	60.4	60.4	84	55.5	0	0	---	0.00	30.020 
03:50	60.4	60.4	60.4	84	55.5	0	0	---	0.00	30.020 
03:55	60.2	60.2	60.2	84	55.3	0	0	---	0.00	30.020 
04:00	60.2	60.2	60.2	84	55.3	0	0	---	0.00	30.021 
04:05	60.1	60.1	60.1	84	55.2	0	0	---	0.00	30.021 
04:10	59.9	59.9	59.9	85	55.4	0	0	---	0.00	30.021 
04:15	59.9	59.9	59.9	85	55.4	0	0	---	0.00	30.021 
04:20	59.9	59.9	59.9	85	55.4	0	0	---	0.00	30.021 
04:25	59.9	59.9	59.9	85	55.4	0	0	---	0.00	30.021 
04:30	59.8	59.8	59.8	85	55.3	0	0	---	0.00	30.016 
04:35	59.9	59.9	59.9	86	55.7	0	0	---	0.00	30.016 
04:40	60.1	60.1	60.1	88	56.5	0	0	---	0.00	30.016 
04:45	60.4	60.4	60.4	88	56.8	0	0	---	0.00	30.011 
04:50	60.5	60.5	60.5	87	56.6	0	0	---	0.00	30.011 
04:55	60.5	60.5	60.5	87	56.6	0	0	---	0.00	30.011 
05:00	60.4	60.4	60.4	87	56.5	0	0	---	0.00	30.017 
05:05	60.5	60.5	60.5	88	56.9	0	0	---	0.00	30.017 
05:10	60.5	60.5	60.5	88	56.9	0	0	---	0.00	30.017 
05:15	60.5	60.5	60.5	88	56.9	0	0	---	0.00	30.020 
05:20	60.5	60.5	60.5	88	56.9	0	0	---	0.00	30.020 
05:25	60.4	60.4	60.4	88	56.8	0	0	---	0.00	30.020 
05:30	60.4	60.4	60.4	89	57.1	0	0	---	0.00	30.022 
05:35	60.2	60.2	60.2	89	56.9	0	0	---	0.00	30.022 
05:40	60.2	60.2	60.2	90	57.3	0	0	---	0.00	30.022 
05:45	60.4	60.4	60.4	90	57.4	0	0	---	0.00	30.023 
05:50	60.4	60.4	60.4	90	57.4	0	0	---	0.00	30.023 
05:55	60.2	60.2	60.2	90	57.3	0	0	---	0.00	30.023 
06:00	60.1	60.1	60.1	90	57.2	0	0	---	0.00	30.023 
06:05	60.1	60.1	60.1	90	57.2	0	0	---	0.00	30.023 
06:10	60.1	60.1	60.1	90	57.2	0	0	---	0.00	30.023 
06:15	59.9	59.9	59.9	90	57.0	0	0	---	0.00	30.024 
06:20	59.9	59.9	59.9	91	57.3	0	0	---	0.00	30.024 
06:25	59.9	59.9	59.9	91	57.3	0	0	---	0.00	30.024 
06:30	60.1	60.1	60.1	92	57.8	0	0	---	0.00	30.025 
06:35	60.2	60.2	60.2	92	57.9	0	0	---	0.00	30.025 
06:40	60.5	60.5	60.5	92	58.2	0	0	---	0.00	30.025 
06:45	60.7	60.7	60.7	92	58.4	0	1	270	0.00	30.024 
06:50	61.2	61.2	61.2	93	59.2	0	0	---	0.00	30.024 
06:55	61.5	61.5	61.5	93	59.5	0	0	---	0.00	30.024 
07:00	62.0	62.0	62.0	93	59.9	0	0	---	0.00	30.024 
07:05	62.3	62.3	62.3	92	59.9	0	1	270	0.00	30.024 
07:10	62.6	62.6	62.6	92	60.2	0	0	---	0.00	30.024 
07:15	63.1	63.1	63.1	92	60.7	0	1	270	0.00	30.032 
07:20	63.4	63.4	63.4	91	60.7	0	1	270	0.00	30.032 
07:25	63.9	63.9	63.9	91	61.2	0	1	270	0.00	30.032 
07:30	64.2	64.2	64.2	90	61.2	0	1	270	0.00	30.037 
07:35	64.5	64.5	64.5	90	61.5	0	1	270	0.00	30.037 
07:40	65.0	65.0	65.0	89	61.7	0	1	270	0.00	30.037 
07:45	65.5	65.5	65.5	89	62.2	0	2	248	0.00	30.037 
07:50	66.0	66.0	66.0	88	62.3	0	2	248	0.00	30.037 
07:55	66.6	66.6	66.6	87	62.6	0	2	248	0.00	30.037 
08:00	67.1	67.1	67.1	86	62.8	0	2	248	0.00	30.036 
08:05	67.8	67.8	67.8	85	63.1	1	3	248	0.00	30.036 
08:10	68.4	68.4	68.4	84	63.4	1	3	248	0.00	30.036 
08:15	68.9	68.9	68.9	82	63.2	1	3	248	0.00	30.033 
08:20	69.6	69.6	69.6	81	63.5	1	2	248	0.00	30.033 
08:25	70.1	70.1	70.1	80	63.6	1	3	248	0.00	30.033 
08:30	70.6	70.6	70.6	79	63.8	1	6	248	0.00	30.036 
08:35	71.1	71.1	71.1	78	63.9	1	3	248	0.00	30.036 
08:40	71.8	71.8	71.8	76	63.8	1	3	225	0.00	30.036 
08:45	72.1	72.1	72.1	76	64.1	1	4	225	0.00	30.032 
08:50	72.5	72.5	72.5	75	64.1	1	3	248	0.00	30.032 
08:55	72.7	72.7	72.7	75	64.3	2	4	248	0.00	30.032 
09:00	72.8	72.8	72.8	74	64.0	1	3	248	0.00	30.033 
09:05	73.0	73.0	73.0	74	64.2	2	4	248	0.00	30.033 
09:10	73.5	73.5	73.5	74	64.7	1	4	248	0.00	30.033 
09:15	73.7	73.7	73.7	72	64.1	2	5	248	0.00	30.041 
09:20	73.9	73.9	73.9	71	63.9	2	5	270	0.00	30.041 
09:25	74.4	74.4	74.4	73	65.2	1	4	248	0.00	30.041 
09:30	75.1	75.1	76.7	71	65.0	1	2	248	0.00	30.036 
09:35	75.6	75.6	77.3	69	64.7	2	3	248	0.00	30.036 
09:40	76.0	76.0	77.7	68	64.7	2	5	248	0.00	30.036 
09:45	76.1	76.1	77.9	66	63.9	2	5	270	0.00	30.039 
09:50	76.7	76.7	78.5	66	64.5	2	3	248	0.00	30.039 
09:55	77.2	77.2	79.0	65	64.5	2	4	248	0.00	30.039 
10:00	77.7	77.7	79.5	64	64.5	1	4	248	0.00	30.034 
10:05	77.7	77.7	79.5	64	64.5	3	6	270	0.00	30.034 
10:10	78.3	78.3	80.1	63	64.6	1	3	270	0.00	30.034 
10:15	78.8	78.8	80.6	62	64.7	3	7	248	0.00	30.031 
10:20	78.8	78.8	80.5	60	63.7	4	7	248	0.00	30.031 
10:25	78.6	78.6	80.4	62	64.5	3	10	248	0.00	30.031 
10:30	79.0	79.0	80.8	62	64.8	2	5	270	0.00	30.023 
10:35	79.4	79.4	81.3	62	65.2	3	7	270	0.00	30.023 
10:40	79.6	79.6	81.5	62	65.4	3	5	248	0.00	30.023 
10:45	79.9	79.9	81.7	60	64.7	3	7	248	0.00	30.020 
10:50	80.1	80.1	81.7	58	64.0	3	6	248	0.00	30.020 
10:55	80.3	80.3	81.9	58	64.2	3	7	270	0.00	30.020 
11:00	80.9	80.9	82.7	58	64.7	2	5	248	0.00	30.019 
11:05	81.6	81.6	83.5	58	65.4	2	5	248	0.00	30.019 
11:10	81.8	81.8	83.8	58	65.6	2	7	270	0.00	30.019 
11:15	82.2	82.2	84.0	56	64.9	2	6	248	0.00	30.018 
11:20	82.4	82.4	83.9	54	64.1	3	7	248	0.00	30.018 
11:25	82.4	82.4	84.2	56	65.1	3	5	248	0.00	30.018 
11:30	83.0	83.0	84.9	55	65.1	2	5	248	0.00	30.018 
11:35	83.2	83.2	85.3	56	65.8	3	9	270	0.00	30.018 
11:40	83.0	83.0	84.5	53	64.1	3	9	270	0.00	30.018 
11:45	83.4	83.4	85.4	55	65.5	3	7	248	0.00	30.014 
11:50	83.2	83.2	84.7	53	64.3	3	9	270	0.00	30.014 
11:55	83.6	83.6	85.0	52	64.1	2	6	248	0.00	30.014 
12:00	84.1	84.1	85.5	51	64.0	3	6	248	0.00	30.005 
12:05	84.5	84.5	87.0	55	66.5	2	6	248	0.00	30.005 
12:10	84.1	84.1	85.5	51	64.0	3	6	248	0.00	30.005 
12:15	84.7	84.7	86.3	51	64.5	2	7	248	0.00	30.001 
12:20	84.7	84.7	85.8	49	63.4	3	7	248	0.00	30.001 
12:25	84.9	84.9	86.3	50	64.2	3	5	270	0.00	30.001 
12:30	85.3	85.3	85.9	46	62.1	3	10	270	0.00	30.004 
12:35	85.5	85.5	86.6	48	63.5	3	6	270	0.00	30.004 
12:40	85.9	85.9	86.9	47	63.3	2	5	270	0.00	30.004 
12:45	86.3	86.3	87.2	46	63.0	3	10	248	0.00	30.000 
12:50	86.3	86.3	87.5	47	63.7	3	7	270	0.00	30.000 
12:55	87.0	87.0	88.2	46	63.7	2	9	270	0.00	30.000 
13:00	87.2	87.2	89.1	48	65.1	2	6	270	0.00	29.990 
13:05	87.0	87.0	88.2	46	63.7	3	9	270	0.00	29.990 
13:10	87.0	87.0	87.6	44	62.4	3	6	270	0.00	29.990 
13:15	87.6	87.6	88.5	44	63.0	2	5	270	0.00	29.988 
13:20	87.6	87.6	88.8	45	63.6	3	9	270	0.00	29.988 
13:25	87.8	87.8	88.8	44	63.1	3	4	248	0.00	29.988 
13:30	87.8	87.8	88.2	42	61.8	4	6	270	0.00	29.985 
13:35	88.2	88.2	89.0	43	62.8	3	7	248	0.00	29.985 
13:40	88.2	88.2	88.4	41	61.5	4	14	270	0.00	29.985 
13:45	88.0	88.0	88.7	43	62.7	4	14	270	0.00	29.981 
13:50	88.4	88.4	88.7	41	61.7	3	5	270	0.00	29.981 
13:55	89.0	89.0	89.6	41	62.2	4	9	270	0.00	29.981 
14:00	88.8	88.8	89.3	41	62.0	3	7	270	0.00	29.973 
14:05	88.8	88.8	89.6	42	62.7	3	6	270	0.00	29.973 
14:10	89.5	89.5	90.6	42	63.3	3	7	248	0.00	29.973 
14:15	89.7	89.7	89.9	39	61.4	4	11	270	0.00	29.971 
14:20	89.7	89.7	89.9	39	61.4	3	7	270	0.00	29.971 
14:25	87.8	87.8	89.1	45	63.8	4	7	248	0.00	29.971 
14:30	85.7	85.7	87.4	50	64.9	3	7	270	0.00	29.969 
14:35	84.9	84.9	86.3	50	64.2	3	6	270	0.00	29.969 
14:40	84.3	84.3	85.5	50	63.6	3	5	270	0.00	29.969 
14:45	84.0	84.0	85.6	52	64.4	3	9	270	0.00	29.966 
14:50	84.0	84.0	86.3	55	66.1	3	8	270	0.00	29.966 
14:55	84.0	84.0	85.3	51	63.9	4	9	248	0.00	29.966 
15:00	84.5	84.5	86.0	51	64.4	5	11	270	0.00	29.956 
15:05	84.7	84.7	85.8	49	63.4	3	7	270	0.00	29.956 
15:10	85.1	85.1	86.4	49	63.8	4	12	270	0.00	29.956 
15:15	84.5	84.5	88.1	59	68.6	4	8	248	0.00	29.955 
15:20	84.1	84.1	85.9	53	65.1	4	10	248	0.00	29.955 
15:25	85.5	85.5	86.2	46	62.3	4	9	270	0.00	29.955 
15:30	86.5	86.5	87.5	46	63.2	3	7	270	0.00	29.949 
15:35	87.8	87.8	88.5	43	62.5	4	9	270	0.00	29.949 
15:40	88.4	88.4	89.0	42	62.3	3	8	270	0.00	29.949 
15:45	88.8	88.8	89.9	43	63.4	4	9	270	0.00	29.942 
15:50	89.9	89.9	90.5	40	62.3	4	10	270	0.00	29.942 
15:55	89.7	89.7	89.6	38	60.7	4	9	270	0.00	29.942 
16:00	89.7	89.7	89.9	39	61.4	3	10	270	0.00	29.940 
16:05	89.7	89.7	89.0	36	59.2	4	12	270	0.00	29.940 
16:10	89.5	89.5	89.3	38	60.5	3	9	270	0.00	29.940 
16:15	89.7	89.7	89.6	38	60.7	4	10	270	0.00	29.938 
16:20	89.9	89.9	90.9	41	63.0	3	9	270	0.00	29.938 
16:25	89.9	89.9	89.0	35	58.5	4	7	248	0.00	29.938 
16:30	89.9	89.9	89.6	37	60.1	4	8	248	0.00	29.936 
16:35	89.7	89.7	89.3	37	59.9	4	9	270	0.00	29.936 
16:40	89.7	89.7	89.0	36	59.2	4	10	270	0.00	29.936 
16:45	89.7	89.7	89.0	36	59.2	3	5	248	0.00	29.932 
16:50	89.7	89.7	89.0	36	59.2	3	12	248	0.00	29.932 
16:55	90.3	90.3	89.8	36	59.7	3	9	248	0.00	29.932 
17:00	90.7	90.7	90.1	35	59.2	3	10	270	0.00	29.927 
17:05	90.1	90.1	89.3	35	58.7	5	11	248	0.00	29.927 
17:10	89.7	89.7	89.0	36	59.2	4	10	248	0.00	29.927 
17:15	89.5	89.5	88.5	35	58.2	4	9	270	0.00	29.924 
17:20	89.7	89.7	89.0	36	59.2	3	6	270	0.00	29.924 
17:25	89.9	89.9	89.6	37	60.1	3	6	270	0.00	29.924 
17:30	89.5	89.5	89.1	37	59.7	4	13	248	0.00	29.926 
17:35	89.7	89.7	89.6	38	60.7	5	13	270	0.00	29.926 
17:40	90.1	90.1	90.2	38	61.0	5	10	270	0.00	29.926 
17:45	89.9	89.9	89.6	37	60.1	5	11	270	0.00	29.917 
17:50	89.3	89.3	89.4	39	61.0	3	10	270	0.00	29.917 
17:55	88.6	88.6	88.2	38	59.7	4	9	270	0.00	29.917 
18:00	88.6	88.6	88.4	39	60.4	4	10	270	0.00	29.916 
18:05	88.8	88.8	89.0	40	61.3	5	11	270	0.00	29.916 
18:10	89.0	89.0	89.0	39	60.8	4	9	270	0.00	29.916 
18:15	89.0	89.0	89.6	41	62.2	4	10	248	0.00	29.907 
18:20	89.0	89.0	89.0	39	60.8	4	11	270	0.00	29.907 
18:25	88.8	88.8	88.7	39	60.6	4	10	270	0.00	29.907 
18:30	88.8	88.8	88.4	38	59.9	5	10	270	0.00	29.906 
18:35	88.8	88.8	88.7	39	60.6	5	11	248	0.00	29.906 
18:40	88.6	88.6	88.2	38	59.7	6	17	270	0.00	29.906 
18:45	88.4	88.4	88.2	39	60.3	5	10	270	0.00	29.905 
18:50	88.2	88.2	88.2	40	60.8	4	10	270	0.00	29.905 
18:55	88.0	88.0	87.9	40	60.6	4	8	270	0.00	29.905 
19:00	87.6	87.6	87.6	41	60.9	4	11	248	0.00	29.903 
19:05	87.2	87.2	87.1	41	60.6	4	10	270	0.00	29.903 
19:10	87.2	87.2	86.9	40	59.9	3	11	270	0.00	29.903 
19:15	87.0	87.0	86.6	40	59.7	5	13	270	0.00	29.897 
19:20	87.0	87.0	86.4	39	59.0	5	13	248	0.00	29.897 
19:25	86.7	86.7	86.3	40	59.5	3	9	270	0.00	29.897 
19:30	86.5	86.5	85.8	39	58.6	4	10	270	0.00	29.900 
19:35	86.7	86.7	86.0	39	58.7	5	10	270	0.00	29.900 
19:40	86.7	86.7	86.3	40	59.5	4	10	270	0.00	29.900 
19:45	86.7	86.7	86.3	40	59.5	4	10	270	0.00	29.900 
19:50	86.5	86.5	86.3	41	60.0	3	10	248	0.00	29.900 
19:55	86.5	86.5	86.0	40	59.3	4	8	270	0.00	29.900 
20:00	86.7	86.7	86.3	40	59.5	4	10	248	0.00	29.902 
20:05	86.7	86.7	86.3	40	59.5	4	10	270	0.00	29.902 
20:10	86.3	86.3	85.6	39	58.4	3	7	248	0.00	29.902 
20:15	86.1	86.1	85.6	40	58.9	3	6	248	0.00	29.900 
20:20	86.1	86.1	85.6	40	58.9	3	7	270	0.00	29.900 
20:25	85.9	85.9	85.3	40	58.7	3	10	248	0.00	29.900 
20:30	85.7	85.7	85.3	41	59.3	2	5	248	0.00	29.900 
20:35	85.3	85.3	85.0	42	59.6	2	5	248	0.00	29.900 
20:40	84.9	84.9	84.8	43	59.9	2	4	248	0.00	29.900 
20:45	84.7	84.7	84.7	44	60.3	2	5	248	0.00	29.901 
20:50	84.5	84.5	84.7	45	60.8	3	7	248	0.00	29.901 
20:55	84.3	84.3	84.5	45	60.6	3	9	248	0.00	29.901 
21:00	84.1	84.1	84.3	45	60.4	3	7	270	0.00	29.893 
21:05	84.1	84.1	84.3	45	60.4	2	5	270	0.00	29.893 
21:10	84.1	84.1	84.3	45	60.4	3	7	248	0.00	29.893 
21:15	84.0	84.0	84.3	46	61.0	2	7	248	0.00	29.894 
21:20	83.6	83.6	83.9	46	60.6	2	4	248	0.00	29.894 
21:25	83.2	83.2	84.0	49	62.0	3	11	248	0.00	29.894 
21:30	83.2	83.2	84.1	50	62.6	3	9	248	0.00	29.895 
21:35	83.2	83.2	84.0	49	62.0	4	10	248	0.00	29.895 
21:40	83.0	83.0	83.7	49	61.8	3	5	248	0.00	29.895 
21:45	82.8	82.8	83.5	49	61.7	3	6	248	0.00	29.899 
21:50	82.6	82.6	83.3	49	61.5	2	9	248	0.00	29.899 
21:55	82.6	82.6	83.3	49	61.5	3	9	270	0.00	29.899 
22:00	82.6	82.6	83.1	48	60.9	3	6	270	0.00	29.898 
22:05	82.4	82.4	82.9	48	60.7	2	6	270	0.00	29.898 
22:10	82.2	82.2	82.7	48	60.5	3	9	248	0.00	29.898 
22:15	82.2	82.2	82.5	47	59.9	5	11	248	0.00	29.898 
22:20	82.2	82.2	82.5	47	59.9	4	10	248	0.00	29.898 
22:25	82.0	82.0	82.3	47	59.8	3	7	270	0.00	29.898 
22:30	81.8	81.8	82.3	48	60.2	4	10	248	0.00	29.900 
22:35	81.6	81.6	82.2	49	60.6	3	6	248	0.00	29.900 
22:40	81.4	81.4	82.0	49	60.4	3	7	248	0.00	29.900 
22:45	81.4	81.4	82.0	49	60.4	3	11	248	0.00	29.901 
22:50	81.4	81.4	82.1	50	60.9	3	9	270	0.00	29.901 
22:55	81.1	81.1	81.8	50	60.7	2	6	248	0.00	29.901 
23:00	80.9	80.9	81.6	50	60.5	3	6	248	0.00	29.912 
23:05	81.1	81.1	81.8	50	60.7	3	7	248	0.00	29.912 
23:10	81.1	81.1	81.8	50	60.7	3	6	248	0.00	29.912 
23:15	80.9	80.9	81.6	50	60.5	2	5	248	0.00	29.919 
23:20	80.7	80.7	81.6	51	60.9	3	7	270	0.00	29.919 
23:25	80.7	80.7	81.6	51	60.9	3	9	270	0.00	29.919 
23:30	80.7	80.7	81.6	51	60.9	3	10	270	0.00	29.927 
23:35	80.7	80.7	81.6	51	60.9	3	6	270	0.00	29.927 
23:40	80.5	80.5	81.4	51	60.7	3	6	248	0.00	29.927 
23:45	80.5	80.5	81.4	51	60.7	3	6	248	0.00	29.925 
23:50	80.7	80.7	81.4	50	60.3	3	6	248	0.00	29.925 
23:55	81.1	81.1	81.8	50	60.7	4	9	270	0.00	29.925 

CoCoRaHS
IN-AL-39
A2 Web Hosting
Creative Commons License
GoDaddy
Look for:

loaded 2017-10-17 18:27:12 • last modified 2010-11-18 10:43:29
Privacy PolicyDisclaimer
• wx.awcolley.com is powered by PmWiki v.2002016 •
• all content (unless otherwise noted) © 2017 A W Colley